Time;durP1;ratioP1;P1;durP2;ratioP2;P2;SDS_P1;SDS_P2;PMS_P1;PMS_P2;Temp;Humidity;BMP_temperature;BMP_pressure;BME280_temperature;BME280_humidity;BME280_pressure;Samples;Min_cycle;Max_cycle;Signal;HPM_P1;HPM_P2
2022/10/22 00:00:07;;;;;;;8.82;5.53;;;11.70;99.90;;;;;;5006373;28;20481;-77
2022/10/22 00:02:32;;;;;;;5.53;5.00;;;11.70;99.90;;;;;;5007102;28;20120;-77
2022/10/22 00:04:58;;;;;;;7.50;5.32;;;11.60;99.90;;;;;;5006072;28;20141;-78
2022/10/22 00:07:24;;;;;;;5.97;5.15;;;11.60;99.90;;;;;;5007088;28;20049;-78
2022/10/22 00:09:50;;;;;;;6.68;4.60;;;11.60;99.90;;;;;;5006778;28;20037;-79
2022/10/22 00:12:16;;;;;;;7.78;5.70;;;11.60;99.90;;;;;;5006490;28;20042;-77
2022/10/22 00:14:42;;;;;;;7.85;4.40;;;11.60;99.90;;;;;;4989426;28;20396;-78
2022/10/22 00:17:08;;;;;;;6.93;4.75;;;11.60;99.90;;;;;;5006947;28;20057;-78
2022/10/22 00:19:34;;;;;;;6.47;4.93;;;11.50;99.90;;;;;;5006674;28;20112;-78
2022/10/22 00:22:01;;;;;;;4.75;4.15;;;11.50;99.90;;;;;;5006678;28;20485;-78
2022/10/22 00:24:26;;;;;;;5.57;4.30;;;11.50;99.90;;;;;;5007227;28;20049;-78
2022/10/22 00:26:52;;;;;;;5.60;4.40;;;11.50;99.90;;;;;;4991875;28;20404;-77
2022/10/22 00:29:18;;;;;;;4.75;4.35;;;11.40;99.90;;;;;;5010908;28;20444;-79
2022/10/22 00:31:48;;;;;;;7.72;4.25;;;11.40;99.90;;;;;;5010764;28;20050;-77
2022/10/22 00:34:15;;;;;;;4.13;3.65;;;11.40;99.90;;;;;;5010080;28;20077;-78
2022/10/22 00:36:41;;;;;;;8.65;4.75;;;11.30;99.90;;;;;;5010404;28;20116;-78
2022/10/22 00:39:07;;;;;;;4.50;3.58;;;11.30;99.90;;;;;;4992510;28;20489;-78
2022/10/22 00:41:32;;;;;;;8.05;4.85;;;11.20;99.90;;;;;;5009637;28;20050;-78
2022/10/22 00:44:03;;;;;;;6.15;4.00;;;11.20;99.90;;;;;;4992068;28;20049;-78
2022/10/22 00:46:29;;;;;;;5.47;4.20;;;11.20;99.90;;;;;;4991775;28;20057;-78
2022/10/22 00:49:01;;;;;;;5.22;4.50;;;11.20;99.90;;;;;;5009587;28;20045;-77
2022/10/22 00:51:30;;;;;;;5.75;3.85;;;11.20;99.90;;;;;;5009869;28;20116;-79
2022/10/22 00:54:01;;;;;;;4.97;4.20;;;11.20;99.90;;;;;;5009751;28;20072;-77
2022/10/22 00:56:27;;;;;;;3.40;2.63;;;11.20;99.90;;;;;;5009169;28;20168;-78
2022/10/22 00:58:56;;;;;;;6.85;3.65;;;11.20;99.90;;;;;;5009588;28;20380;-79
2022/10/22 01:01:26;;;;;;;4.53;4.13;;;11.20;99.90;;;;;;4992136;28;20499;-78
2022/10/22 01:03:52;;;;;;;5.15;3.20;;;11.20;99.90;;;;;;5009406;28;20046;-77
2022/10/22 01:06:23;;;;;;;7.03;3.42;;;11.10;99.90;;;;;;5009523;28;20042;-78
2022/10/22 01:09:00;;;;;;;4.78;3.55;;;11.10;99.90;;;;;;5010169;28;20082;-78
2022/10/22 01:11:45;;;;;;;5.40;4.30;;;11.10;99.90;;;;;;5008769;28;20172;-78
2022/10/22 01:14:17;;;;;;;7.57;4.43;;;11.10;99.90;;;;;;4991837;28;20048;-78
2022/10/22 01:16:49;;;;;;;6.88;4.75;;;11.10;99.90;;;;;;5009275;28;20405;-78
2022/10/22 01:19:33;;;;;;;4.53;3.58;;;11.10;99.90;;;;;;5009439;28;20072;-78
2022/10/22 01:22:08;;;;;;;3.63;3.03;;;11.00;99.90;;;;;;4999576;28;20129;-77
2022/10/22 01:24:45;;;;;;;3.78;3.47;;;11.10;99.90;;;;;;5009146;28;20405;-79
2022/10/22 01:27:30;;;;;;;4.97;4.32;;;11.00;99.90;;;;;;4988928;28;20073;-77
2022/10/22 01:30:01;;;;;;;4.03;3.63;;;11.10;99.90;;;;;;4998287;28;20038;-78
2022/10/22 01:32:30;;;;;;;6.00;3.97;;;11.10;99.90;;;;;;5009472;28;20129;-77
2022/10/22 01:35:03;;;;;;;11.10;4.88;;;11.10;99.90;;;;;;5008926;28;20073;-77
2022/10/22 01:37:31;;;;;;;8.35;4.80;;;11.10;99.90;;;;;;4990728;28;20064;-77
2022/10/22 01:39:59;;;;;;;4.35;3.85;;;11.10;99.90;;;;;;5008792;28;20040;-78
2022/10/22 01:42:24;;;;;;;6.70;4.22;;;11.10;99.90;;;;;;5008328;28;20049;-77
2022/10/22 01:44:50;;;;;;;7.03;4.82;;;11.20;99.90;;;;;;5008877;28;20116;-80
2022/10/22 01:47:37;;;;;;;5.90;4.95;;;11.10;99.90;;;;;;5009227;28;20054;-78
2022/10/22 01:50:22;;;;;;;7.40;5.55;;;11.20;99.90;;;;;;4991027;28;20109;-77
2022/10/22 01:53:02;;;;;;;7.05;5.78;;;11.20;99.90;;;;;;4991780;28;20061;-78
2022/10/22 01:55:34;;;;;;;7.00;5.82;;;11.20;99.90;;;;;;5008950;28;20037;-77
2022/10/22 01:58:21;;;;;;;6.25;4.55;;;11.20;99.90;;;;;;4990993;28;20504;-78
2022/10/22 02:01:03;;;;;;;8.60;5.53;;;11.20;99.90;;;;;;5008986;28;20076;-78
2022/10/22 02:03:39;;;;;;;5.50;4.82;;;11.30;99.90;;;;;;5008638;28;20545;-78
2022/10/22 02:06:09;;;;;;;8.52;6.80;;;11.30;99.90;;;;;;5008506;28;20052;-79
2022/10/22 02:08:36;;;;;;;10.90;6.55;;;11.30;99.90;;;;;;4991179;28;20046;-78
2022/10/22 02:11:03;;;;;;;7.28;6.38;;;11.40;99.90;;;;;;5007368;28;20049;-78
2022/10/22 02:13:41;;;;;;;6.30;4.93;;;11.40;99.90;;;;;;4975046;28;20108;-78
2022/10/22 02:16:09;;;;;;;8.77;5.63;;;11.30;99.90;;;;;;5008076;28;20042;-77
2022/10/22 02:18:38;;;;;;;7.82;6.05;;;11.40;99.90;;;;;;5008124;28;20066;-79
2022/10/22 02:21:05;;;;;;;6.10;5.43;;;11.40;99.90;;;;;;4990316;28;20496;-78
2022/10/22 02:23:31;;;;;;;11.75;7.35;;;11.40;99.90;;;;;;5007991;28;20045;-78
2022/10/22 02:26:03;;;;;;;7.85;5.85;;;11.40;99.90;;;;;;5006882;28;20034;-77
2022/10/22 02:28:36;;;;;;;9.80;6.07;;;11.50;99.90;;;;;;5008283;28;20052;-78
2022/10/22 02:31:11;;;;;;;6.53;5.78;;;11.50;99.90;;;;;;5007926;28;20114;-78
2022/10/22 02:33:46;;;;;;;8.23;6.28;;;11.50;99.90;;;;;;5008050;28;20057;-78
2022/10/22 02:36:13;;;;;;;8.73;6.78;;;11.50;99.90;;;;;;4990294;28;20044;-78
2022/10/22 02:38:40;;;;;;;8.85;6.97;;;11.50;99.90;;;;;;5007967;28;20488;-78
2022/10/22 02:41:06;;;;;;;10.60;7.82;;;11.60;99.90;;;;;;5007063;28;20046;-78
2022/10/22 02:43:40;;;;;;;9.32;6.90;;;11.60;99.90;;;;;;5007964;28;20497;-77
2022/10/22 02:46:06;;;;;;;7.65;6.25;;;11.60;99.90;;;;;;4990089;28;20366;-78
2022/10/22 02:48:31;;;;;;;10.07;6.45;;;11.60;99.90;;;;;;5007458;28;20056;-78
2022/10/22 02:50:57;;;;;;;11.50;6.82;;;11.60;99.90;;;;;;5007561;28;20050;-78
2022/10/22 02:53:22;;;;;;;11.38;7.18;;;11.60;99.90;;;;;;4990421;28;20424;-77
2022/10/22 02:55:48;;;;;;;8.75;7.38;;;11.60;99.90;;;;;;5007340;28;20030;-78
2022/10/22 02:58:13;;;;;;;9.52;8.18;;;11.70;99.90;;;;;;5007768;28;20097;-78
2022/10/22 03:00:39;;;;;;;9.98;7.72;;;11.70;99.90;;;;;;5007758;28;20088;-77
2022/10/22 03:03:04;;;;;;;9.52;6.97;;;11.70;99.90;;;;;;5007619;28;20527;-79
2022/10/22 03:05:30;;;;;;;10.57;7.00;;;11.70;99.90;;;;;;5007652;28;20386;-77
2022/10/22 03:07:55;;;;;;;10.48;7.65;;;11.70;99.90;;;;;;5007203;28;20108;-77
2022/10/22 03:10:21;;;;;;;11.68;8.00;;;11.80;99.90;;;;;;4989361;28;20041;-78
2022/10/22 03:12:47;;;;;;;12.20;7.97;;;11.80;99.90;;;;;;5007875;28;20080;-78
2022/10/22 03:15:12;;;;;;;19.73;8.45;;;11.80;99.90;;;;;;5007232;28;20075;-78
2022/10/22 03:17:38;;;;;;;10.68;7.82;;;11.80;99.90;;;;;;5007433;28;20488;-79
2022/10/22 03:20:04;;;;;;;9.40;6.80;;;11.80;99.90;;;;;;4989928;28;20046;-78
2022/10/22 03:22:32;;;;;;;12.25;7.22;;;11.80;99.90;;;;;;5007623;28;20042;-77
2022/10/22 03:25:03;;;;;;;12.07;7.40;;;11.80;99.90;;;;;;5007019;28;20499;-77
2022/10/22 03:27:29;;;;;;;11.55;6.65;;;11.90;99.90;;;;;;4988569;28;20081;-77
2022/10/22 03:29:57;;;;;;;8.70;6.57;;;11.90;99.90;;;;;;5006823;28;20400;-78
2022/10/22 03:32:23;;;;;;;8.73;6.55;;;11.90;99.90;;;;;;5007205;28;20049;-78
2022/10/22 03:34:48;;;;;;;14.88;8.73;;;11.90;99.90;;;;;;5007732;28;20038;-77
2022/10/22 03:37:14;;;;;;;10.50;7.32;;;11.90;99.90;;;;;;4973433;28;20038;-77
2022/10/22 03:39:39;;;;;;;15.60;7.88;;;12.00;99.90;;;;;;5007233;28;20038;-78
2022/10/22 03:42:06;;;;;;;9.10;6.70;;;12.00;99.90;;;;;;5006548;28;20172;-78
2022/10/22 03:44:32;;;;;;;14.88;8.25;;;12.00;99.90;;;;;;5007135;28;20085;-78
2022/10/22 03:46:58;;;;;;;15.60;7.72;;;12.00;99.90;;;;;;5006360;28;20060;-78
2022/10/22 03:49:23;;;;;;;10.82;7.20;;;12.00;99.90;;;;;;5007365;28;20050;-78
2022/10/22 03:51:49;;;;;;;8.88;6.95;;;12.00;99.90;;;;;;5007488;28;20038;-78
2022/10/22 03:54:15;;;;;;;8.70;6.15;;;12.00;99.90;;;;;;4990087;28;20077;-77
2022/10/22 03:56:41;;;;;;;17.05;6.85;;;12.00;99.90;;;;;;5006168;28;20037;-78
2022/10/22 03:59:06;;;;;;;17.02;6.57;;;12.00;99.90;;;;;;5007333;28;20038;-77
2022/10/22 04:01:32;;;;;;;12.95;7.00;;;11.90;99.90;;;;;;4976862;28;20057;-77
2022/10/22 04:03:58;;;;;;;9.50;6.18;;;11.90;99.90;;;;;;5010656;28;20038;-79
2022/10/22 04:06:24;;;;;;;7.22;5.90;;;11.90;99.90;;;;;;5010816;28;20092;-78
2022/10/22 04:08:50;;;;;;;7.82;6.30;;;11.90;99.90;;;;;;5010871;28;20041;-81
2022/10/22 04:11:16;;;;;;;9.20;6.38;;;11.90;99.90;;;;;;5010098;28;20049;-78
2022/10/22 04:13:43;;;;;;;11.00;6.03;;;11.90;99.90;;;;;;5010679;28;20145;-77
2022/10/22 04:16:14;;;;;;;6.97;5.95;;;11.90;99.90;;;;;;5010523;28;20084;-77
2022/10/22 04:18:41;;;;;;;6.30;4.93;;;11.90;99.90;;;;;;5011079;28;20397;-77
2022/10/22 04:21:09;;;;;;;8.45;5.47;;;11.90;99.90;;;;;;5010198;28;20295;-78
2022/10/22 04:23:35;;;;;;;11.10;5.10;;;11.90;99.90;;;;;;4993064;28;20034;-78
2022/10/22 04:26:06;;;;;;;9.48;5.28;;;11.90;99.90;;;;;;4997785;28;20039;-78
2022/10/22 04:28:32;;;;;;;7.45;4.93;;;11.90;99.90;;;;;;4992893;28;20133;-78
2022/10/22 04:30:58;;;;;;;15.85;6.05;;;11.90;99.90;;;;;;5010182;28;20041;-77
2022/10/22 04:33:23;;;;;;;8.95;5.65;;;11.90;99.90;;;;;;4992597;28;20400;-79
2022/10/22 04:35:49;;;;;;;15.35;5.57;;;11.90;99.90;;;;;;4993094;28;20080;-77
2022/10/22 04:38:15;;;;;;;14.05;5.00;;;11.80;99.90;;;;;;5010889;28;20457;-78
2022/10/22 04:40:41;;;;;;;11.20;5.30;;;11.90;99.90;;;;;;5009271;28;20405;-78
2022/10/22 04:43:06;;;;;;;7.55;5.55;;;11.80;99.90;;;;;;5009901;28;20096;-77
2022/10/22 04:45:33;;;;;;;9.60;5.72;;;11.80;99.90;;;;;;5010024;28;20419;-79
2022/10/22 04:47:59;;;;;;;5.90;4.80;;;11.90;99.90;;;;;;5009765;28;20508;-77
2022/10/22 04:50:24;;;;;;;12.57;5.70;;;11.90;99.90;;;;;;5010452;28;20122;-78
2022/10/22 04:52:50;;;;;;;5.78;4.80;;;11.90;99.90;;;;;;5009722;28;20042;-78
2022/10/22 04:55:16;;;;;;;9.40;5.07;;;11.90;99.90;;;;;;5009272;28;20042;-78
2022/10/22 04:57:41;;;;;;;9.23;6.07;;;11.90;99.90;;;;;;4992393;28;20137;-78
2022/10/22 05:00:09;;;;;;;10.43;5.10;;;11.90;99.90;;;;;;5009670;28;20046;-78
2022/10/22 05:02:34;;;;;;;10.68;5.78;;;11.90;99.90;;;;;;5009632;28;20136;-77
2022/10/22 05:05:01;;;;;;;10.63;5.72;;;11.90;99.90;;;;;;5009413;28;20042;-78
2022/10/22 05:07:26;;;;;;;13.15;6.47;;;11.90;99.90;;;;;;5009462;28;20096;-78
2022/10/22 05:09:53;;;;;;;8.27;4.93;;;11.90;99.90;;;;;;5009213;28;20042;-78
2022/10/22 05:12:18;;;;;;;7.65;5.18;;;11.90;99.90;;;;;;5007966;28;20041;-78
2022/10/22 05:14:44;;;;;;;15.82;5.07;;;11.90;99.90;;;;;;5009547;28;20030;-77
2022/10/22 05:17:09;;;;;;;12.90;5.55;;;11.90;99.90;;;;;;5009203;28;20054;-77
2022/10/22 05:19:35;;;;;;;17.08;5.25;;;11.90;99.90;;;;;;5009792;28;20144;-77
2022/10/22 05:22:02;;;;;;;6.07;4.72;;;11.90;99.90;;;;;;5009277;28;20053;-78
2022/10/22 05:24:30;;;;;;;10.75;5.65;;;12.00;99.90;;;;;;5008306;28;20113;-77
2022/10/22 05:26:57;;;;;;;6.38;4.90;;;12.00;99.90;;;;;;4988811;28;20042;-78
2022/10/22 05:29:24;;;;;;;15.48;5.18;;;11.90;99.90;;;;;;4989996;28;20042;-78
2022/10/22 05:31:49;;;;;;;9.10;5.03;;;12.00;99.90;;;;;;4989967;28;20121;-80
2022/10/22 05:34:15;;;;;;;9.57;6.05;;;12.00;99.90;;;;;;4998422;28;20129;-78
2022/10/22 05:36:41;;;;;;;6.93;5.22;;;11.90;99.90;;;;;;5009230;28;20136;-79
2022/10/22 05:39:06;;;;;;;5.65;5.05;;;12.00;99.90;;;;;;4991040;28;20132;-79
2022/10/22 05:41:34;;;;;;;9.73;4.90;;;12.00;99.90;;;;;;5007879;28;20485;-78
2022/10/22 05:44:00;;;;;;;20.92;6.30;;;12.00;99.90;;;;;;5008881;28;20046;-78
2022/10/22 05:46:28;;;;;;;8.32;4.88;;;12.00;99.90;;;;;;5008085;28;20046;-77
2022/10/22 05:48:59;;;;;;;12.38;5.25;;;12.00;99.90;;;;;;4999614;28;20061;-78
2022/10/22 05:51:27;;;;;;;15.05;5.70;;;12.00;99.90;;;;;;4993075;28;20049;-78
2022/10/22 05:53:59;;;;;;;9.98;6.25;;;12.00;99.90;;;;;;5008416;28;20046;-78
2022/10/22 05:56:27;;;;;;;11.50;6.20;;;12.00;99.90;;;;;;5008081;28;20502;-77
2022/10/22 05:58:53;;;;;;;9.60;4.75;;;12.00;99.90;;;;;;5008502;28;20042;-77
2022/10/22 06:01:22;;;;;;;9.02;5.32;;;12.00;99.90;;;;;;5009198;28;20057;-79
2022/10/22 06:03:48;;;;;;;10.20;5.78;;;12.00;99.90;;;;;;4991504;28;20501;-77
2022/10/22 06:06:30;;;;;;;10.70;5.72;;;12.00;99.90;;;;;;4990837;28;20042;-77
2022/10/22 06:09:01;;;;;;;9.35;5.10;;;12.00;99.90;;;;;;5008184;28;20069;-78
2022/10/22 06:11:26;;;;;;;11.20;5.43;;;12.00;99.90;;;;;;5007524;28;20121;-77
2022/10/22 06:13:52;;;;;;;8.38;5.68;;;12.00;99.90;;;;;;5007882;28;20181;-78
2022/10/22 06:16:18;;;;;;;7.35;6.22;;;12.00;99.90;;;;;;5008850;28;20046;-78
2022/10/22 06:18:43;;;;;;;7.10;4.93;;;12.00;99.90;;;;;;5008356;28;20059;-78
2022/10/22 06:21:11;;;;;;;8.95;6.32;;;12.00;99.90;;;;;;4990476;28;20085;-79
2022/10/22 06:23:38;;;;;;;8.63;5.63;;;12.10;99.90;;;;;;4990297;28;20052;-77
2022/10/22 06:26:04;;;;;;;7.07;5.15;;;12.10;99.90;;;;;;5006855;28;20068;-77
2022/10/22 06:28:31;;;;;;;8.18;5.82;;;12.10;99.90;;;;;;5008076;28;20042;-77
2022/10/22 06:31:01;;;;;;;7.70;4.82;;;12.00;99.90;;;;;;4990242;28;20069;-78
2022/10/22 06:33:27;;;;;;;10.68;6.85;;;12.10;99.90;;;;;;5007727;28;20041;-77
2022/10/22 06:35:53;;;;;;;16.25;6.65;;;12.10;99.90;;;;;;4990546;28;20524;-78
2022/10/22 06:38:19;;;;;;;7.43;5.13;;;12.00;99.90;;;;;;5008506;28;20132;-77
2022/10/22 06:40:45;;;;;;;7.25;5.53;;;12.10;99.90;;;;;;5007596;28;20037;-78
2022/10/22 06:43:12;;;;;;;11.05;6.40;;;12.00;99.90;;;;;;5007299;28;20042;-78
2022/10/22 06:45:38;;;;;;;8.93;6.35;;;12.10;99.90;;;;;;4998936;28;20496;-78
2022/10/22 06:48:04;;;;;;;8.13;6.35;;;12.00;99.90;;;;;;5004813;28;20053;-76
2022/10/22 06:50:30;;;;;;;7.53;4.95;;;12.00;99.90;;;;;;5007732;28;20089;-78
2022/10/22 06:52:56;;;;;;;8.05;5.20;;;12.00;99.90;;;;;;5007359;28;20052;-78
2022/10/22 06:55:22;;;;;;;9.27;5.57;;;12.00;99.90;;;;;;5004888;28;20502;-76
2022/10/22 06:57:47;;;;;;;14.13;6.00;;;12.00;99.90;;;;;;5003784;28;20050;-76
2022/10/22 07:00:13;;;;;;;11.95;6.65;;;12.00;99.90;;;;;;4998780;28;20048;-76
2022/10/22 07:02:39;;;;;;;8.07;5.30;;;12.10;99.90;;;;;;4991614;28;20070;-77
2022/10/22 07:05:05;;;;;;;10.82;5.78;;;12.00;99.90;;;;;;4998154;28;20046;-76
2022/10/22 07:07:30;;;;;;;12.75;5.75;;;12.10;99.90;;;;;;5004077;28;20519;-77
2022/10/22 07:09:56;;;;;;;10.32;5.93;;;12.10;99.90;;;;;;4996756;28;20222;-76
2022/10/22 07:12:21;;;;;;;7.88;4.75;;;12.10;99.90;;;;;;4995943;28;20456;-76
2022/10/22 07:14:48;;;;;;;10.02;5.15;;;12.10;99.90;;;;;;4996827;28;20039;-77
2022/10/22 07:17:14;;;;;;;10.00;5.70;;;12.10;99.90;;;;;;4981120;28;20050;-77
2022/10/22 07:19:39;;;;;;;10.25;5.53;;;12.20;99.90;;;;;;5001337;28;20095;-78
2022/10/22 07:22:05;;;;;;;11.90;6.15;;;12.20;99.90;;;;;;4998327;28;20046;-77
2022/10/22 07:24:31;;;;;;;8.50;5.60;;;12.30;99.90;;;;;;5000513;28;20121;-79
2022/10/22 07:26:57;;;;;;;8.95;5.75;;;12.30;99.90;;;;;;4980468;28;20057;-77
2022/10/22 07:29:22;;;;;;;9.95;5.32;;;12.30;99.90;;;;;;4983920;28;20034;-78
2022/10/22 07:31:48;;;;;;;12.13;5.43;;;12.30;99.90;;;;;;4985823;28;20117;-78
2022/10/22 07:34:13;;;;;;;7.93;4.68;;;12.30;99.90;;;;;;4988444;28;20045;-77
2022/10/22 07:36:39;;;;;;;8.43;4.47;;;12.40;99.90;;;;;;4998751;28;20133;-79
2022/10/22 07:39:04;;;;;;;8.73;5.65;;;12.40;99.90;;;;;;5003350;28;20045;-77
2022/10/22 07:41:30;;;;;;;11.63;5.38;;;12.40;99.90;;;;;;5006329;28;20038;-79
2022/10/22 07:43:56;;;;;;;12.98;5.07;;;12.40;99.90;;;;;;5000688;28;20073;-78
2022/10/22 07:46:23;;;;;;;7.68;5.05;;;12.40;99.90;;;;;;5000566;28;20129;-77
2022/10/22 07:48:49;;;;;;;10.68;5.38;;;12.40;99.90;;;;;;4999760;28;20050;-77
2022/10/22 07:51:15;;;;;;;8.68;5.05;;;12.50;99.90;;;;;;5007299;28;20048;-77
2022/10/22 07:53:40;;;;;;;10.88;5.43;;;12.40;99.90;;;;;;4989502;28;20180;-79
2022/10/22 07:56:07;;;;;;;12.45;5.80;;;12.50;99.90;;;;;;4991616;28;20521;-77
2022/10/22 07:58:32;;;;;;;10.98;6.20;;;12.50;99.90;;;;;;5005601;28;20480;-77
2022/10/22 08:01:00;;;;;;;6.10;4.45;;;12.50;99.90;;;;;;4998596;28;20098;-77
2022/10/22 08:03:27;;;;;;;15.93;6.70;;;12.50;99.90;;;;;;5006235;28;20085;-77
2022/10/22 08:05:53;;;;;;;11.85;4.70;;;12.50;99.90;;;;;;4989412;28;20033;-79
2022/10/22 08:08:19;;;;;;;10.88;5.63;;;12.60;99.90;;;;;;5002891;28;20125;-77
2022/10/22 08:10:46;;;;;;;9.52;5.25;;;12.70;99.90;;;;;;5003132;28;20038;-78
2022/10/22 08:13:11;;;;;;;7.70;5.28;;;12.70;99.90;;;;;;5006246;28;20081;-78
2022/10/22 08:15:37;;;;;;;12.65;5.30;;;12.70;99.90;;;;;;5006269;28;20463;-80
2022/10/22 08:18:03;;;;;;;8.32;5.65;;;12.80;99.90;;;;;;5006837;28;20129;-74
2022/10/22 08:20:28;;;;;;;15.13;4.85;;;12.80;99.90;;;;;;5006368;28;20042;-79
2022/10/22 08:22:54;;;;;;;8.77;5.25;;;12.90;99.90;;;;;;5006651;28;20065;-79
2022/10/22 08:25:20;;;;;;;6.50;4.82;;;13.00;99.90;;;;;;4998098;28;20047;-78
2022/10/22 08:27:45;;;;;;;12.32;5.38;;;13.00;99.90;;;;;;5004483;28;20038;-78
2022/10/22 08:30:12;;;;;;;11.85;5.70;;;13.10;99.90;;;;;;4996049;28;20115;-76
2022/10/22 08:32:37;;;;;;;8.52;4.45;;;13.20;99.90;;;;;;4994864;28;20043;-76
2022/10/22 08:35:03;;;;;;;9.35;5.50;;;13.20;99.90;;;;;;4997343;28;20078;-78
2022/10/22 08:37:29;;;;;;;13.50;5.13;;;13.30;99.90;;;;;;4995097;28;20050;-77
2022/10/22 08:39:54;;;;;;;10.57;6.18;;;13.30;99.90;;;;;;5004887;28;20088;-78
2022/10/22 08:43:04;;;;;;;13.77;5.40;;;13.40;99.90;;;;;;5005093;28;20073;-78
2022/10/22 08:45:44;;;;;;;10.77;4.88;;;13.40;99.90;;;;;;4960292;28;20084;-77
2022/10/22 08:48:28;;;;;;;6.57;4.53;;;13.50;99.90;;;;;;5000636;28;20061;-77
2022/10/22 08:50:56;;;;;;;9.40;4.88;;;13.60;99.90;;;;;;4974569;28;20031;-76
2022/10/22 08:53:30;;;;;;;17.73;4.72;;;13.50;99.90;;;;;;4998483;28;20053;-77
2022/10/22 08:55:57;;;;;;;14.43;5.72;;;13.60;99.90;;;;;;4996505;28;20042;-78
2022/10/22 08:58:32;;;;;;;9.02;4.75;;;13.60;99.90;;;;;;4990735;28;20093;-77
2022/10/22 09:01:05;;;;;;;9.75;4.78;;;13.70;99.90;;;;;;5003143;28;20041;-78
2022/10/22 09:03:55;;;;;;;16.35;4.75;;;13.80;99.90;;;;;;4997516;28;20485;-76
2022/10/22 09:06:25;;;;;;;7.25;3.90;;;13.80;99.90;;;;;;4994568;28;20042;-78
2022/10/22 09:08:52;;;;;;;4.20;3.22;;;13.80;99.90;;;;;;4997503;28;20042;-77
2022/10/22 09:11:31;;;;;;;7.43;4.88;;;13.80;99.90;;;;;;5002099;28;20042;-77
2022/10/22 09:13:58;;;;;;;10.18;4.45;;;13.90;99.90;;;;;;5000831;28;20039;-78
2022/10/22 09:16:45;;;;;;;7.82;5.50;;;13.90;99.90;;;;;;4984756;28;20135;-78
2022/10/22 09:19:37;;;;;;;11.80;4.90;;;13.90;99.90;;;;;;4998373;28;20185;-78
2022/10/22 09:22:36;;;;;;;8.48;4.22;;;14.00;99.90;;;;;;4991273;28;20507;-78
2022/10/22 09:25:15;;;;;;;7.05;4.35;;;14.00;99.90;;;;;;4987125;28;20045;-78
2022/10/22 09:27:40;;;;;;;13.68;4.22;;;14.00;99.90;;;;;;5008656;28;20100;-79
2022/10/22 09:30:10;;;;;;;7.63;3.72;;;14.00;99.90;;;;;;5008312;28;20038;-78
2022/10/22 09:32:36;;;;;;;8.30;4.75;;;14.00;99.90;;;;;;4978825;28;20505;-79
2022/10/22 09:35:01;;;;;;;5.72;3.55;;;14.10;99.90;;;;;;5003855;28;20092;-78
2022/10/22 09:37:28;;;;;;;5.53;3.90;;;14.10;99.90;;;;;;4991294;28;20129;-79
2022/10/22 09:39:57;;;;;;;7.55;4.25;;;14.10;99.90;;;;;;4997539;28;20068;-79
2022/10/22 09:42:23;;;;;;;9.77;4.10;;;14.10;99.90;;;;;;5009109;28;20428;-79
2022/10/22 09:44:58;;;;;;;4.82;3.65;;;14.10;99.90;;;;;;5009691;28;20038;-79
2022/10/22 09:47:33;;;;;;;13.68;4.55;;;14.20;99.90;;;;;;4999208;28;20058;-79
2022/10/22 09:50:25;;;;;;;5.93;3.65;;;14.20;99.90;;;;;;5009260;28;20050;-79
2022/10/22 09:53:28;;;;;;;8.13;4.30;;;14.20;99.90;;;;;;5006718;28;20121;-79
2022/10/22 09:55:57;;;;;;;7.75;4.00;;;14.20;99.90;;;;;;4983655;28;20092;-79
2022/10/22 09:58:23;;;;;;;7.38;4.00;;;14.30;99.90;;;;;;4974518;28;20034;-79
2022/10/22 10:01:00;;;;;;;7.55;5.15;;;14.30;99.90;;;;;;5007411;28;20049;-79
2022/10/22 10:03:29;;;;;;;17.63;4.50;;;14.30;99.90;;;;;;4990518;28;20436;-79
2022/10/22 10:05:58;;;;;;;13.77;5.70;;;14.30;99.90;;;;;;4998548;28;20072;-79
2022/10/22 10:08:24;;;;;;;8.98;4.13;;;14.40;99.90;;;;;;4990810;28;20047;-79
2022/10/22 10:10:59;;;;;;;9.13;5.00;;;14.40;99.90;;;;;;5008038;28;20046;-79
2022/10/22 10:13:33;;;;;;;10.00;5.35;;;14.50;99.90;;;;;;5008642;28;20046;-79
2022/10/22 10:16:09;;;;;;;15.00;5.65;;;14.50;99.90;;;;;;5008650;28;20144;-79
2022/10/22 10:18:49;;;;;;;6.70;4.32;;;14.50;99.90;;;;;;4989075;28;20087;-79
2022/10/22 10:21:43;;;;;;;6.43;3.90;;;14.40;99.90;;;;;;5007659;28;20069;-82
2022/10/22 10:24:30;;;;;;;7.15;4.63;;;14.50;99.90;;;;;;4983300;28;20781;-77
2022/10/22 10:27:08;;;;;;;6.70;4.10;;;14.60;99.90;;;;;;4973582;28;20492;-80
2022/10/22 10:30:02;;;;;;;4.20;3.58;;;14.60;99.90;;;;;;5008480;28;20049;-84
2022/10/22 10:32:52;;;;;;;8.40;3.92;;;14.70;99.90;;;;;;4982768;28;20453;-79
2022/10/22 10:35:21;;;;;;;5.05;3.33;;;14.80;99.90;;;;;;5008980;28;20228;-79
2022/10/22 10:38:12;;;;;;;8.25;4.85;;;14.80;99.90;;;;;;5008915;28;20042;-79
2022/10/22 10:40:48;;;;;;;7.47;3.63;;;14.80;99.90;;;;;;4990362;28;20065;-79
2022/10/22 10:43:44;;;;;;;6.15;4.22;;;14.70;99.90;;;;;;4990736;28;20054;-79
2022/10/22 10:46:40;;;;;;;10.43;4.85;;;14.70;99.90;;;;;;5008371;28;20061;-79
2022/10/22 10:49:21;;;;;;;10.00;6.03;;;14.70;99.90;;;;;;5008179;28;20064;-79
2022/10/22 10:52:28;;;;;;;13.37;7.37;;;14.70;99.90;;;;;;5008313;28;20056;-79
2022/10/22 10:55:18;;;;;;;7.55;4.85;;;14.60;99.90;;;;;;4989947;28;20878;-79
2022/10/22 10:57:55;;;;;;;11.80;7.00;;;14.60;99.90;;;;;;5008370;28;20046;-78
2022/10/22 11:00:21;;;;;;;12.90;5.85;;;14.60;99.90;;;;;;4990844;28;20157;-79
2022/10/22 11:03:20;;;;;;;8.13;5.45;;;14.60;99.90;;;;;;5008327;28;20093;-79
2022/10/22 11:05:56;;;;;;;10.02;6.47;;;14.50;99.90;;;;;;4974949;28;20447;-79
2022/10/22 11:08:53;;;;;;;17.40;7.78;;;14.60;99.90;;;;;;4990526;28;20081;-79
2022/10/22 11:11:46;;;;;;;13.80;8.05;;;14.60;99.90;;;;;;5007334;28;20488;-79
2022/10/22 11:14:25;;;;;;;9.73;6.65;;;14.60;99.90;;;;;;4988540;28;20054;-79
2022/10/22 11:17:11;;;;;;;20.05;7.63;;;14.70;99.90;;;;;;4988461;28;20050;-79
2022/10/22 11:19:42;;;;;;;8.90;6.93;;;14.70;99.90;;;;;;5005135;28;20038;-79
2022/10/22 11:22:34;;;;;;;9.70;6.40;;;14.70;99.90;;;;;;5007346;28;20576;-79
2022/10/22 11:25:12;;;;;;;11.43;6.13;;;14.80;99.90;;;;;;4974748;28;20121;-79
2022/10/22 11:27:56;;;;;;;9.93;5.63;;;14.80;99.90;;;;;;5008176;28;20054;-79
2022/10/22 11:30:24;;;;;;;15.85;6.63;;;14.80;99.90;;;;;;4999520;28;20037;-83
2022/10/22 11:33:02;;;;;;;19.05;6.47;;;14.80;99.90;;;;;;5000584;28;20042;-82
2022/10/22 11:35:39;;;;;;;9.15;5.95;;;14.80;99.90;;;;;;5005403;28;20038;-79
2022/10/22 11:38:06;;;;;;;6.82;5.68;;;14.80;99.90;;;;;;4990266;28;20046;-80
2022/10/22 11:40:36;;;;;;;11.15;5.32;;;14.80;99.90;;;;;;4989629;28;20107;-79
2022/10/22 11:43:07;;;;;;;8.32;4.95;;;14.80;99.90;;;;;;4982224;28;20045;-79
2022/10/22 11:45:40;;;;;;;9.00;5.53;;;14.80;99.90;;;;;;5006956;28;20046;-81
2022/10/22 11:48:08;;;;;;;15.32;5.45;;;14.70;99.90;;;;;;5006815;28;20104;-84
2022/10/22 11:50:40;;;;;;;12.18;5.07;;;14.70;99.90;;;;;;5007636;28;20042;-82
2022/10/22 11:53:18;;;;;;;9.05;5.32;;;14.70;99.90;;;;;;5001840;28;20050;-82
2022/10/22 11:55:54;;;;;;;14.25;5.47;;;14.80;99.90;;;;;;5005587;28;20100;-82
2022/10/22 11:58:29;;;;;;;13.05;5.35;;;14.80;99.90;;;;;;5007552;28;20079;-82
2022/10/22 12:01:08;;;;;;;7.97;5.15;;;14.90;99.90;;;;;;4989743;28;20404;-82
2022/10/22 12:03:34;;;;;;;12.68;4.43;;;14.90;99.90;;;;;;5006770;28;20038;-82
2022/10/22 12:06:11;;;;;;;12.02;4.60;;;14.90;99.90;;;;;;5002086;28;20385;-82
2022/10/22 12:08:49;;;;;;;6.63;4.80;;;15.00;99.90;;;;;;5005376;28;20528;-85
2022/10/22 12:12:00;;;;;;;5.78;4.70;;;15.00;99.90;;;;;;4980285;28;20050;-82
2022/10/22 12:14:36;;;;;;;9.48;4.05;;;15.10;99.90;;;;;;4998491;28;20053;-82
2022/10/22 12:17:13;;;;;;;9.20;3.67;;;15.10;99.90;;;;;;4988733;28;20103;-82
2022/10/22 12:19:42;;;;;;;4.32;2.42;;;15.20;99.90;;;;;;4961090;28;20080;-82
2022/10/22 12:22:10;;;;;;;5.53;3.08;;;15.20;99.90;;;;;;5004634;28;20053;-83
2022/10/22 12:24:40;;;;;;;3.50;1.73;;;15.20;99.90;;;;;;4985143;28;20103;-83
2022/10/22 12:27:24;;;;;;;4.30;2.10;;;15.30;99.90;;;;;;4992251;28;20077;-83
2022/10/22 12:29:56;;;;;;;6.60;2.33;;;15.30;99.90;;;;;;5006864;28;20034;-82
2022/10/22 12:32:22;;;;;;;11.20;2.25;;;15.30;99.90;;;;;;4989692;28;20038;-84
2022/10/22 12:34:49;;;;;;;4.57;2.55;;;15.30;99.90;;;;;;4986131;28;20042;-83
2022/10/22 12:37:16;;;;;;;5.18;2.22;;;15.30;99.90;;;;;;5006344;28;20096;-82
2022/10/22 12:39:44;;;;;;;3.97;1.77;;;15.30;99.90;;;;;;5008635;28;20141;-81
2022/10/22 12:42:16;;;;;;;9.15;2.13;;;15.40;99.90;;;;;;5009111;28;20452;-81
2022/10/22 12:44:43;;;;;;;5.95;2.13;;;15.40;99.90;;;;;;5009745;28;20515;-81
2022/10/22 12:47:17;;;;;;;1.73;1.35;;;15.40;99.90;;;;;;5006198;28;20061;-81
2022/10/22 12:49:48;;;;;;;9.05;2.33;;;15.50;99.90;;;;;;5005700;28;20065;-81
2022/10/22 12:52:18;;;;;;;4.77;1.47;;;15.50;99.90;;;;;;5007487;28;20535;-81
2022/10/22 12:54:46;;;;;;;6.05;2.10;;;15.50;99.90;;;;;;5008697;28;20297;-81
2022/10/22 12:57:15;;;;;;;6.32;1.90;;;15.60;99.90;;;;;;4994498;28;20089;-81
2022/10/22 12:59:43;;;;;;;4.85;2.63;;;15.60;99.90;;;;;;4978309;28;20057;-81